Terminal Aerodrome Forecast
Issued by NWS

Home | Current Version | Previous Version | Text Only | Print | Product List | Glossary On
Versions: 1 2 3 4 5 6 7 8 9 10 11 12 13 14
636
FTUS42 KTBW 180707 AAA
TAFLAL
TAF AMD
KLAL 180707Z 1807/1906 VRB03KT 2SM BR SCT004 SCT250
      TEMPO 1807/1809 1/2SM FG VV003
     FM180900 VRB03KT 1SM BR BKN003
      TEMPO 1809/1813 1/4SM FG VV002
     FM181300 VRB03KT 3SM BR SCT006 SCT250
     FM181400 VRB03KT P6SM SCT020 SCT250
     FM181700 VRB04KT P6SM SCT040 SCT250
     FM182300 VRB03KT P6SM FEW050 SCT250
      AMD NOT SKED TIL 181200=

USA.gov is the U.S. government's official web portal to all federal, state and local government web resources and services.